sensor_id;sensor_type;location;lat;lon;timestamp;temperature;humidity
14061;DHT22;7105;43.616;1.434;2023-05-14T00:01:57;13.10;99.90
14061;DHT22;7105;43.616;1.434;2023-05-14T00:04:23;13.10;99.90
14061;DHT22;7105;43.616;1.434;2023-05-14T00:06:48;13.00;99.90
14061;DHT22;7105;43.616;1.434;2023-05-14T00:09:14;13.00;99.90
14061;DHT22;7105;43.616;1.434;2023-05-14T00:11:40;13.00;99.90
14061;DHT22;7105;43.616;1.434;2023-05-14T00:14:06;13.10;99.90
14061;DHT22;7105;43.616;1.434;2023-05-14T00:16:31;13.00;99.90
14061;DHT22;7105;43.616;1.434;2023-05-14T00:18:57;12.90;99.90
14061;DHT22;7105;43.616;1.434;2023-05-14T00:21:23;12.90;99.90
14061;DHT22;7105;43.616;1.434;2023-05-14T00:23:48;12.90;99.90
14061;DHT22;7105;43.616;1.434;2023-05-14T00:26:14;13.00;99.90
14061;DHT22;7105;43.616;1.434;2023-05-14T00:28:40;13.00;99.90
14061;DHT22;7105;43.616;1.434;2023-05-14T00:31:05;13.00;99.90
14061;DHT22;7105;43.616;1.434;2023-05-14T00:33:31;12.90;99.90
14061;DHT22;7105;43.616;1.434;2023-05-14T00:35:57;13.00;99.90
14061;DHT22;7105;43.616;1.434;2023-05-14T00:38:23;12.90;99.90
14061;DHT22;7105;43.616;1.434;2023-05-14T00:40:52;13.00;99.90
14061;DHT22;7105;43.616;1.434;2023-05-14T00:43:18;13.00;99.90
14061;DHT22;7105;43.616;1.434;2023-05-14T00:45:44;13.00;99.90
14061;DHT22;7105;43.616;1.434;2023-05-14T00:48:11;13.00;99.90
14061;DHT22;7105;43.616;1.434;2023-05-14T00:50:37;13.20;99.90
14061;DHT22;7105;43.616;1.434;2023-05-14T00:53:03;13.20;99.90
14061;DHT22;7105;43.616;1.434;2023-05-14T00:55:37;13.20;99.90
14061;DHT22;7105;43.616;1.434;2023-05-14T00:58:11;13.10;99.90
14061;DHT22;7105;43.616;1.434;2023-05-14T01:00:38;13.00;99.90
14061;DHT22;7105;43.616;1.434;2023-05-14T01:03:04;13.10;99.90
14061;DHT22;7105;43.616;1.434;2023-05-14T01:08:26;13.10;99.90
14061;DHT22;7105;43.616;1.434;2023-05-14T01:11:02;13.20;99.90
14061;DHT22;7105;43.616;1.434;2023-05-14T01:13:39;13.10;99.90
14061;DHT22;7105;43.616;1.434;2023-05-14T01:16:11;13.00;99.90
14061;DHT22;7105;43.616;1.434;2023-05-14T01:18:39;13.00;99.90
14061;DHT22;7105;43.616;1.434;2023-05-14T01:21:22;13.00;99.90
14061;DHT22;7105;43.616;1.434;2023-05-14T01:23:48;13.00;99.90
14061;DHT22;7105;43.616;1.434;2023-05-14T01:26:14;13.00;99.90
14061;DHT22;7105;43.616;1.434;2023-05-14T01:28:39;13.00;99.90
14061;DHT22;7105;43.616;1.434;2023-05-14T01:31:09;13.00;99.90
14061;DHT22;7105;43.616;1.434;2023-05-14T01:33:41;13.00;99.90
14061;DHT22;7105;43.616;1.434;2023-05-14T01:36:08;12.90;99.90
14061;DHT22;7105;43.616;1.434;2023-05-14T01:38:34;12.90;99.90
14061;DHT22;7105;43.616;1.434;2023-05-14T01:41:01;12.90;99.90
14061;DHT22;7105;43.616;1.434;2023-05-14T01:43:28;13.00;99.90
14061;DHT22;7105;43.616;1.434;2023-05-14T01:45:54;13.00;99.90
14061;DHT22;7105;43.616;1.434;2023-05-14T01:48:20;13.00;99.90
14061;DHT22;7105;43.616;1.434;2023-05-14T01:50:46;13.00;99.90
14061;DHT22;7105;43.616;1.434;2023-05-14T01:53:11;13.00;99.90
14061;DHT22;7105;43.616;1.434;2023-05-14T01:55:37;12.90;99.90
14061;DHT22;7105;43.616;1.434;2023-05-14T01:58:03;12.90;99.90
14061;DHT22;7105;43.616;1.434;2023-05-14T02:00:29;12.90;99.90
14061;DHT22;7105;43.616;1.434;2023-05-14T02:02:54;12.90;99.90
14061;DHT22;7105;43.616;1.434;2023-05-14T02:05:20;13.00;99.90
14061;DHT22;7105;43.616;1.434;2023-05-14T02:07:46;12.90;99.90
14061;DHT22;7105;43.616;1.434;2023-05-14T02:10:11;12.90;99.90
14061;DHT22;7105;43.616;1.434;2023-05-14T02:12:40;12.90;99.90
14061;DHT22;7105;43.616;1.434;2023-05-14T02:15:06;13.00;99.90
14061;DHT22;7105;43.616;1.434;2023-05-14T02:17:35;13.00;99.90
14061;DHT22;7105;43.616;1.434;2023-05-14T02:20:01;13.00;99.90
14061;DHT22;7105;43.616;1.434;2023-05-14T02:22:27;13.00;99.90
14061;DHT22;7105;43.616;1.434;2023-05-14T02:24:52;13.00;99.90
14061;DHT22;7105;43.616;1.434;2023-05-14T02:27:18;13.00;99.90
14061;DHT22;7105;43.616;1.434;2023-05-14T02:29:43;13.00;99.90
14061;DHT22;7105;43.616;1.434;2023-05-14T02:32:09;13.00;99.90
14061;DHT22;7105;43.616;1.434;2023-05-14T02:34:35;13.00;99.90
14061;DHT22;7105;43.616;1.434;2023-05-14T02:37:00;13.00;99.90
14061;DHT22;7105;43.616;1.434;2023-05-14T02:39:26;13.00;99.90
14061;DHT22;7105;43.616;1.434;2023-05-14T02:41:52;13.00;99.90
14061;DHT22;7105;43.616;1.434;2023-05-14T02:44:17;13.00;99.90
14061;DHT22;7105;43.616;1.434;2023-05-14T02:46:43;13.00;99.90
14061;DHT22;7105;43.616;1.434;2023-05-14T02:49:11;12.90;99.90
14061;DHT22;7105;43.616;1.434;2023-05-14T02:51:37;13.00;99.90
14061;DHT22;7105;43.616;1.434;2023-05-14T02:54:03;12.90;99.90
14061;DHT22;7105;43.616;1.434;2023-05-14T02:56:28;12.90;99.90
14061;DHT22;7105;43.616;1.434;2023-05-14T02:58:54;12.90;99.90
14061;DHT22;7105;43.616;1.434;2023-05-14T03:01:20;12.90;99.90
14061;DHT22;7105;43.616;1.434;2023-05-14T03:03:46;12.90;99.90
14061;DHT22;7105;43.616;1.434;2023-05-14T03:06:11;12.90;99.90
14061;DHT22;7105;43.616;1.434;2023-05-14T03:08:37;12.90;99.90
14061;DHT22;7105;43.616;1.434;2023-05-14T03:11:02;12.90;99.90
14061;DHT22;7105;43.616;1.434;2023-05-14T03:13:28;12.90;99.90
14061;DHT22;7105;43.616;1.434;2023-05-14T03:15:54;12.90;99.90
14061;DHT22;7105;43.616;1.434;2023-05-14T03:18:21;12.90;99.90
14061;DHT22;7105;43.616;1.434;2023-05-14T03:20:46;12.90;99.90
14061;DHT22;7105;43.616;1.434;2023-05-14T03:23:12;12.90;99.90
14061;DHT22;7105;43.616;1.434;2023-05-14T03:25:39;12.90;99.90
14061;DHT22;7105;43.616;1.434;2023-05-14T03:28:04;12.80;99.90
14061;DHT22;7105;43.616;1.434;2023-05-14T03:30:30;12.80;99.90
14061;DHT22;7105;43.616;1.434;2023-05-14T03:32:56;12.70;99.90
14061;DHT22;7105;43.616;1.434;2023-05-14T03:35:22;12.70;99.90
14061;DHT22;7105;43.616;1.434;2023-05-14T03:37:47;12.70;99.90
14061;DHT22;7105;43.616;1.434;2023-05-14T03:40:13;12.60;99.90
14061;DHT22;7105;43.616;1.434;2023-05-14T03:42:39;12.60;99.90
14061;DHT22;7105;43.616;1.434;2023-05-14T03:45:05;12.60;99.90
14061;DHT22;7105;43.616;1.434;2023-05-14T03:47:31;12.60;99.90
14061;DHT22;7105;43.616;1.434;2023-05-14T03:49:57;12.60;99.90
14061;DHT22;7105;43.616;1.434;2023-05-14T03:52:22;12.60;99.90
14061;DHT22;7105;43.616;1.434;2023-05-14T03:54:48;12.60;99.90
14061;DHT22;7105;43.616;1.434;2023-05-14T03:57:14;12.60;99.90
14061;DHT22;7105;43.616;1.434;2023-05-14T03:59:39;12.50;99.90
14061;DHT22;7105;43.616;1.434;2023-05-14T04:02:06;12.60;99.90
14061;DHT22;7105;43.616;1.434;2023-05-14T04:04:32;12.60;99.90
14061;DHT22;7105;43.616;1.434;2023-05-14T04:06:57;12.60;99.90
14061;DHT22;7105;43.616;1.434;2023-05-14T04:09:23;12.60;99.90
14061;DHT22;7105;43.616;1.434;2023-05-14T04:11:49;12.60;99.90
14061;DHT22;7105;43.616;1.434;2023-05-14T04:14:14;12.60;99.90
14061;DHT22;7105;43.616;1.434;2023-05-14T04:16:40;12.70;99.90
14061;DHT22;7105;43.616;1.434;2023-05-14T04:19:06;12.70;99.90
14061;DHT22;7105;43.616;1.434;2023-05-14T04:21:31;12.70;99.90
14061;DHT22;7105;43.616;1.434;2023-05-14T04:23:57;12.80;99.90
14061;DHT22;7105;43.616;1.434;2023-05-14T04:26:23;12.70;99.90
14061;DHT22;7105;43.616;1.434;2023-05-14T04:28:48;12.70;99.90
14061;DHT22;7105;43.616;1.434;2023-05-14T04:31:14;12.70;99.90
14061;DHT22;7105;43.616;1.434;2023-05-14T04:33:40;12.70;99.90
14061;DHT22;7105;43.616;1.434;2023-05-14T04:36:06;12.70;99.90
14061;DHT22;7105;43.616;1.434;2023-05-14T04:38:32;12.60;99.90
14061;DHT22;7105;43.616;1.434;2023-05-14T04:40:58;12.70;99.90
14061;DHT22;7105;43.616;1.434;2023-05-14T04:43:24;12.60;99.90
14061;DHT22;7105;43.616;1.434;2023-05-14T04:45:50;12.70;99.90
14061;DHT22;7105;43.616;1.434;2023-05-14T04:48:17;12.70;99.90
14061;DHT22;7105;43.616;1.434;2023-05-14T04:50:42;12.80;99.90
14061;DHT22;7105;43.616;1.434;2023-05-14T04:53:09;12.80;99.90
14061;DHT22;7105;43.616;1.434;2023-05-14T04:55:35;12.80;99.90
14061;DHT22;7105;43.616;1.434;2023-05-14T04:58:01;12.90;99.90
14061;DHT22;7105;43.616;1.434;2023-05-14T05:00:27;12.90;99.90
14061;DHT22;7105;43.616;1.434;2023-05-14T05:02:53;13.00;99.90
14061;DHT22;7105;43.616;1.434;2023-05-14T05:05:18;13.00;99.90
14061;DHT22;7105;43.616;1.434;2023-05-14T05:07:45;13.00;99.90
14061;DHT22;7105;43.616;1.434;2023-05-14T05:10:10;13.00;99.90
14061;DHT22;7105;43.616;1.434;2023-05-14T05:12:36;13.00;99.90
14061;DHT22;7105;43.616;1.434;2023-05-14T05:15:02;13.00;99.90
14061;DHT22;7105;43.616;1.434;2023-05-14T05:17:28;13.00;99.90
14061;DHT22;7105;43.616;1.434;2023-05-14T05:19:54;13.00;99.90
14061;DHT22;7105;43.616;1.434;2023-05-14T05:22:19;13.00;99.90
14061;DHT22;7105;43.616;1.434;2023-05-14T05:24:45;13.00;99.90
14061;DHT22;7105;43.616;1.434;2023-05-14T05:27:11;13.00;99.90
14061;DHT22;7105;43.616;1.434;2023-05-14T05:29:37;13.00;99.90
14061;DHT22;7105;43.616;1.434;2023-05-14T05:32:03;13.00;99.90
14061;DHT22;7105;43.616;1.434;2023-05-14T05:34:29;13.10;99.90
14061;DHT22;7105;43.616;1.434;2023-05-14T05:36:54;13.00;99.90
14061;DHT22;7105;43.616;1.434;2023-05-14T05:39:20;13.00;99.90
14061;DHT22;7105;43.616;1.434;2023-05-14T05:41:46;13.00;99.90
14061;DHT22;7105;43.616;1.434;2023-05-14T05:44:11;13.00;99.90
14061;DHT22;7105;43.616;1.434;2023-05-14T05:46:37;13.00;99.90
14061;DHT22;7105;43.616;1.434;2023-05-14T05:49:03;13.00;99.90
14061;DHT22;7105;43.616;1.434;2023-05-14T05:51:28;13.10;99.90
14061;DHT22;7105;43.616;1.434;2023-05-14T05:53:54;13.10;99.90
14061;DHT22;7105;43.616;1.434;2023-05-14T05:56:20;13.20;99.90
14061;DHT22;7105;43.616;1.434;2023-05-14T05:58:46;13.20;99.90
14061;DHT22;7105;43.616;1.434;2023-05-14T06:01:12;13.20;99.90
14061;DHT22;7105;43.616;1.434;2023-05-14T06:03:38;13.20;99.90
14061;DHT22;7105;43.616;1.434;2023-05-14T06:06:03;13.20;99.90
14061;DHT22;7105;43.616;1.434;2023-05-14T06:08:29;13.20;99.90
14061;DHT22;7105;43.616;1.434;2023-05-14T06:10:55;13.20;99.90
14061;DHT22;7105;43.616;1.434;2023-05-14T06:13:21;13.30;99.90
14061;DHT22;7105;43.616;1.434;2023-05-14T06:15:47;13.40;99.90
14061;DHT22;7105;43.616;1.434;2023-05-14T06:18:12;13.40;99.90
14061;DHT22;7105;43.616;1.434;2023-05-14T06:20:38;13.40;99.90
14061;DHT22;7105;43.616;1.434;2023-05-14T06:23:05;13.60;99.90
14061;DHT22;7105;43.616;1.434;2023-05-14T06:25:32;13.60;99.90
14061;DHT22;7105;43.616;1.434;2023-05-14T06:27:58;13.60;99.90
14061;DHT22;7105;43.616;1.434;2023-05-14T06:30:23;13.60;99.90
14061;DHT22;7105;43.616;1.434;2023-05-14T06:32:49;13.60;99.90
14061;DHT22;7105;43.616;1.434;2023-05-14T06:35:16;13.70;99.90
14061;DHT22;7105;43.616;1.434;2023-05-14T06:37:43;13.70;99.90
14061;DHT22;7105;43.616;1.434;2023-05-14T06:40:09;13.90;99.90
14061;DHT22;7105;43.616;1.434;2023-05-14T06:42:35;14.00;99.90
14061;DHT22;7105;43.616;1.434;2023-05-14T06:45:00;14.00;99.90
14061;DHT22;7105;43.616;1.434;2023-05-14T06:47:26;13.90;99.90
14061;DHT22;7105;43.616;1.434;2023-05-14T06:49:52;14.00;99.90
14061;DHT22;7105;43.616;1.434;2023-05-14T06:52:17;13.80;99.90
14061;DHT22;7105;43.616;1.434;2023-05-14T06:54:43;13.80;99.90
14061;DHT22;7105;43.616;1.434;2023-05-14T06:57:08;14.00;99.90
14061;DHT22;7105;43.616;1.434;2023-05-14T06:59:34;13.80;99.90
14061;DHT22;7105;43.616;1.434;2023-05-14T07:02:00;14.00;99.90
14061;DHT22;7105;43.616;1.434;2023-05-14T07:04:26;13.90;99.90
14061;DHT22;7105;43.616;1.434;2023-05-14T07:06:52;13.90;99.90
14061;DHT22;7105;43.616;1.434;2023-05-14T07:09:17;14.10;99.90
14061;DHT22;7105;43.616;1.434;2023-05-14T07:11:43;14.20;99.90
14061;DHT22;7105;43.616;1.434;2023-05-14T07:14:09;14.20;99.90
14061;DHT22;7105;43.616;1.434;2023-05-14T07:16:35;14.30;99.90
14061;DHT22;7105;43.616;1.434;2023-05-14T07:19:00;14.40;99.90
14061;DHT22;7105;43.616;1.434;2023-05-14T07:21:26;14.50;99.90
14061;DHT22;7105;43.616;1.434;2023-05-14T07:23:52;14.70;99.90
14061;DHT22;7105;43.616;1.434;2023-05-14T07:26:18;15.10;99.90
14061;DHT22;7105;43.616;1.434;2023-05-14T07:28:43;15.60;99.90
14061;DHT22;7105;43.616;1.434;2023-05-14T07:31:09;16.40;99.90
14061;DHT22;7105;43.616;1.434;2023-05-14T07:33:35;16.10;99.90
14061;DHT22;7105;43.616;1.434;2023-05-14T07:36:01;16.00;99.90
14061;DHT22;7105;43.616;1.434;2023-05-14T07:38:26;15.90;99.90
14061;DHT22;7105;43.616;1.434;2023-05-14T07:40:52;15.70;99.90
14061;DHT22;7105;43.616;1.434;2023-05-14T07:43:18;15.20;99.90
14061;DHT22;7105;43.616;1.434;2023-05-14T07:45:44;15.10;99.90
14061;DHT22;7105;43.616;1.434;2023-05-14T07:48:10;15.30;99.90
14061;DHT22;7105;43.616;1.434;2023-05-14T07:50:36;15.30;99.90
14061;DHT22;7105;43.616;1.434;2023-05-14T07:53:02;15.30;99.90
14061;DHT22;7105;43.616;1.434;2023-05-14T07:55:28;15.90;99.90
14061;DHT22;7105;43.616;1.434;2023-05-14T07:57:53;15.40;99.90
14061;DHT22;7105;43.616;1.434;2023-05-14T08:00:19;15.40;99.90
14061;DHT22;7105;43.616;1.434;2023-05-14T08:02:45;15.40;99.90
14061;DHT22;7105;43.616;1.434;2023-05-14T08:05:11;15.50;99.90
14061;DHT22;7105;43.616;1.434;2023-05-14T08:07:37;15.20;99.90
14061;DHT22;7105;43.616;1.434;2023-05-14T08:10:02;15.30;99.90
14061;DHT22;7105;43.616;1.434;2023-05-14T08:12:28;15.70;99.90
14061;DHT22;7105;43.616;1.434;2023-05-14T08:14:54;15.40;99.90
14061;DHT22;7105;43.616;1.434;2023-05-14T08:17:20;15.40;99.90
14061;DHT22;7105;43.616;1.434;2023-05-14T08:19:46;15.30;99.90
14061;DHT22;7105;43.616;1.434;2023-05-14T08:22:12;15.10;99.90
14061;DHT22;7105;43.616;1.434;2023-05-14T08:24:38;15.10;99.90
14061;DHT22;7105;43.616;1.434;2023-05-14T08:27:04;14.90;99.90
14061;DHT22;7105;43.616;1.434;2023-05-14T08:29:29;15.00;99.90
14061;DHT22;7105;43.616;1.434;2023-05-14T08:31:55;15.30;99.90
14061;DHT22;7105;43.616;1.434;2023-05-14T08:34:20;15.50;99.90
14061;DHT22;7105;43.616;1.434;2023-05-14T08:36:46;15.70;99.90
14061;DHT22;7105;43.616;1.434;2023-05-14T08:39:12;15.70;99.90
14061;DHT22;7105;43.616;1.434;2023-05-14T08:41:39;16.00;99.90
14061;DHT22;7105;43.616;1.434;2023-05-14T08:44:22;16.00;99.90
14061;DHT22;7105;43.616;1.434;2023-05-14T08:46:52;16.10;99.90
14061;DHT22;7105;43.616;1.434;2023-05-14T08:51:44;16.70;99.90
14061;DHT22;7105;43.616;1.434;2023-05-14T08:54:15;16.50;99.90
14061;DHT22;7105;43.616;1.434;2023-05-14T08:56:43;16.20;99.90
14061;DHT22;7105;43.616;1.434;2023-05-14T08:59:12;15.60;99.90
14061;DHT22;7105;43.616;1.434;2023-05-14T09:01:40;16.00;99.90
14061;DHT22;7105;43.616;1.434;2023-05-14T09:04:08;16.00;99.90
14061;DHT22;7105;43.616;1.434;2023-05-14T09:06:35;16.20;99.90
14061;DHT22;7105;43.616;1.434;2023-05-14T09:09:04;15.70;99.90
14061;DHT22;7105;43.616;1.434;2023-05-14T09:11:31;16.00;99.90
14061;DHT22;7105;43.616;1.434;2023-05-14T09:13:56;16.10;99.90
14061;DHT22;7105;43.616;1.434;2023-05-14T09:16:24;15.90;99.90
14061;DHT22;7105;43.616;1.434;2023-05-14T09:18:50;16.00;99.90
14061;DHT22;7105;43.616;1.434;2023-05-14T09:21:17;16.40;99.90
14061;DHT22;7105;43.616;1.434;2023-05-14T09:23:43;16.50;99.90
14061;DHT22;7105;43.616;1.434;2023-05-14T09:26:10;16.70;99.90
14061;DHT22;7105;43.616;1.434;2023-05-14T09:28:39;17.20;99.90
14061;DHT22;7105;43.616;1.434;2023-05-14T09:31:07;17.60;99.90
14061;DHT22;7105;43.616;1.434;2023-05-14T09:33:33;17.80;99.90
14061;DHT22;7105;43.616;1.434;2023-05-14T09:36:00;17.50;99.90
14061;DHT22;7105;43.616;1.434;2023-05-14T09:38:30;17.60;99.90
14061;DHT22;7105;43.616;1.434;2023-05-14T09:40:56;17.30;99.90
14061;DHT22;7105;43.616;1.434;2023-05-14T09:43:22;17.20;99.90
14061;DHT22;7105;43.616;1.434;2023-05-14T09:45:48;17.90;99.90
14061;DHT22;7105;43.616;1.434;2023-05-14T09:48:16;17.90;99.90
14061;DHT22;7105;43.616;1.434;2023-05-14T09:50:42;17.70;99.90
14061;DHT22;7105;43.616;1.434;2023-05-14T09:53:09;17.60;99.90
14061;DHT22;7105;43.616;1.434;2023-05-14T09:55:37;18.10;99.90
14061;DHT22;7105;43.616;1.434;2023-05-14T09:58:04;18.30;99.90
14061;DHT22;7105;43.616;1.434;2023-05-14T10:00:33;17.60;99.90
14061;DHT22;7105;43.616;1.434;2023-05-14T10:03:04;17.20;99.90
14061;DHT22;7105;43.616;1.434;2023-05-14T10:05:34;17.20;99.90
14061;DHT22;7105;43.616;1.434;2023-05-14T10:08:04;17.60;99.90
14061;DHT22;7105;43.616;1.434;2023-05-14T10:10:34;17.80;99.90
14061;DHT22;7105;43.616;1.434;2023-05-14T10:13:14;17.80;99.90
14061;DHT22;7105;43.616;1.434;2023-05-14T10:15:51;17.80;99.90
14061;DHT22;7105;43.616;1.434;2023-05-14T10:18:22;17.80;99.90
14061;DHT22;7105;43.616;1.434;2023-05-14T10:20:56;18.00;99.90
14061;DHT22;7105;43.616;1.434;2023-05-14T10:23:25;17.90;99.90
14061;DHT22;7105;43.616;1.434;2023-05-14T10:25:51;17.50;99.90
14061;DHT22;7105;43.616;1.434;2023-05-14T10:28:17;17.50;99.90
14061;DHT22;7105;43.616;1.434;2023-05-14T10:30:44;17.70;99.90
14061;DHT22;7105;43.616;1.434;2023-05-14T10:33:14;18.00;99.90
14061;DHT22;7105;43.616;1.434;2023-05-14T10:36:00;18.00;99.90
14061;DHT22;7105;43.616;1.434;2023-05-14T10:38:27;18.50;99.90
14061;DHT22;7105;43.616;1.434;2023-05-14T10:40:58;18.60;99.90
14061;DHT22;7105;43.616;1.434;2023-05-14T10:43:26;18.40;99.90
14061;DHT22;7105;43.616;1.434;2023-05-14T10:45:54;18.30;99.90
14061;DHT22;7105;43.616;1.434;2023-05-14T10:48:20;18.40;99.90
14061;DHT22;7105;43.616;1.434;2023-05-14T10:50:50;18.60;99.90
14061;DHT22;7105;43.616;1.434;2023-05-14T10:53:16;19.10;99.90
14061;DHT22;7105;43.616;1.434;2023-05-14T10:55:45;19.20;99.90
14061;DHT22;7105;43.616;1.434;2023-05-14T10:58:11;19.00;99.90
14061;DHT22;7105;43.616;1.434;2023-05-14T11:00:37;18.90;99.90
14061;DHT22;7105;43.616;1.434;2023-05-14T11:03:04;19.00;99.90
14061;DHT22;7105;43.616;1.434;2023-05-14T11:05:31;18.60;99.90
14061;DHT22;7105;43.616;1.434;2023-05-14T11:07:58;18.60;99.90
14061;DHT22;7105;43.616;1.434;2023-05-14T11:10:25;18.50;99.90
14061;DHT22;7105;43.616;1.434;2023-05-14T11:12:55;18.80;99.90
14061;DHT22;7105;43.616;1.434;2023-05-14T11:15:23;18.70;99.90
14061;DHT22;7105;43.616;1.434;2023-05-14T11:17:50;18.70;99.90
14061;DHT22;7105;43.616;1.434;2023-05-14T11:20:17;19.00;99.90
14061;DHT22;7105;43.616;1.434;2023-05-14T11:22:44;19.20;99.90
14061;DHT22;7105;43.616;1.434;2023-05-14T11:25:11;19.20;99.90
14061;DHT22;7105;43.616;1.434;2023-05-14T11:27:44;19.50;99.90
14061;DHT22;7105;43.616;1.434;2023-05-14T11:30:18;19.30;99.90
14061;DHT22;7105;43.616;1.434;2023-05-14T11:32:45;19.00;99.90
14061;DHT22;7105;43.616;1.434;2023-05-14T11:35:11;19.30;99.90
14061;DHT22;7105;43.616;1.434;2023-05-14T11:37:37;19.10;99.90
14061;DHT22;7105;43.616;1.434;2023-05-14T11:40:07;19.40;99.90
14061;DHT22;7105;43.616;1.434;2023-05-14T11:42:35;19.50;99.90
14061;DHT22;7105;43.616;1.434;2023-05-14T11:45:01;19.40;99.90
14061;DHT22;7105;43.616;1.434;2023-05-14T11:47:28;19.70;99.90
14061;DHT22;7105;43.616;1.434;2023-05-14T11:49:54;20.10;99.90
14061;DHT22;7105;43.616;1.434;2023-05-14T11:52:22;19.90;99.90
14061;DHT22;7105;43.616;1.434;2023-05-14T11:54:48;19.50;99.90
14061;DHT22;7105;43.616;1.434;2023-05-14T11:57:18;19.70;99.90
14061;DHT22;7105;43.616;1.434;2023-05-14T11:59:44;19.30;99.90
14061;DHT22;7105;43.616;1.434;2023-05-14T12:02:12;19.30;99.90
14061;DHT22;7105;43.616;1.434;2023-05-14T12:04:39;19.60;99.90
14061;DHT22;7105;43.616;1.434;2023-05-14T12:07:11;19.80;99.90
14061;DHT22;7105;43.616;1.434;2023-05-14T12:09:41;19.60;99.90
14061;DHT22;7105;43.616;1.434;2023-05-14T12:12:08;19.40;99.90
14061;DHT22;7105;43.616;1.434;2023-05-14T12:14:37;19.30;99.90
14061;DHT22;7105;43.616;1.434;2023-05-14T12:17:08;19.10;99.90
14061;DHT22;7105;43.616;1.434;2023-05-14T12:19:39;19.10;99.90
14061;DHT22;7105;43.616;1.434;2023-05-14T12:22:04;18.80;99.90
14061;DHT22;7105;43.616;1.434;2023-05-14T12:24:30;18.70;99.90
14061;DHT22;7105;43.616;1.434;2023-05-14T12:26:59;18.70;99.90
14061;DHT22;7105;43.616;1.434;2023-05-14T12:29:25;18.60;99.90
14061;DHT22;7105;43.616;1.434;2023-05-14T12:31:51;18.70;99.90
14061;DHT22;7105;43.616;1.434;2023-05-14T12:34:17;18.50;99.90
14061;DHT22;7105;43.616;1.434;2023-05-14T12:36:43;18.30;99.90
14061;DHT22;7105;43.616;1.434;2023-05-14T12:39:09;18.50;99.90
14061;DHT22;7105;43.616;1.434;2023-05-14T12:41:35;18.60;99.90
14061;DHT22;7105;43.616;1.434;2023-05-14T12:44:03;18.80;99.90
14061;DHT22;7105;43.616;1.434;2023-05-14T12:46:29;18.80;99.90
14061;DHT22;7105;43.616;1.434;2023-05-14T12:48:55;19.20;99.90
14061;DHT22;7105;43.616;1.434;2023-05-14T12:51:21;19.90;99.90
14061;DHT22;7105;43.616;1.434;2023-05-14T12:53:48;20.30;99.90
14061;DHT22;7105;43.616;1.434;2023-05-14T12:56:15;20.60;99.90
14061;DHT22;7105;43.616;1.434;2023-05-14T12:58:41;20.30;99.90
14061;DHT22;7105;43.616;1.434;2023-05-14T13:01:07;20.10;99.90
14061;DHT22;7105;43.616;1.434;2023-05-14T13:03:33;20.10;99.90
14061;DHT22;7105;43.616;1.434;2023-05-14T13:05:58;19.90;99.90
14061;DHT22;7105;43.616;1.434;2023-05-14T13:08:24;19.90;99.90
14061;DHT22;7105;43.616;1.434;2023-05-14T13:10:54;19.60;99.90
14061;DHT22;7105;43.616;1.434;2023-05-14T13:13:23;19.50;99.90
14061;DHT22;7105;43.616;1.434;2023-05-14T13:15:48;19.90;99.90
14061;DHT22;7105;43.616;1.434;2023-05-14T13:18:16;20.20;99.90
14061;DHT22;7105;43.616;1.434;2023-05-14T13:20:41;20.40;99.90
14061;DHT22;7105;43.616;1.434;2023-05-14T13:23:07;20.40;99.90
14061;DHT22;7105;43.616;1.434;2023-05-14T13:25:33;20.40;99.90
14061;DHT22;7105;43.616;1.434;2023-05-14T13:27:59;20.70;99.90
14061;DHT22;7105;43.616;1.434;2023-05-14T13:30:25;20.70;99.90
14061;DHT22;7105;43.616;1.434;2023-05-14T13:32:51;21.30;99.90
14061;DHT22;7105;43.616;1.434;2023-05-14T13:35:16;21.30;99.90
14061;DHT22;7105;43.616;1.434;2023-05-14T13:37:43;21.10;99.90
14061;DHT22;7105;43.616;1.434;2023-05-14T13:40:09;21.00;99.90
14061;DHT22;7105;43.616;1.434;2023-05-14T13:42:36;20.80;99.90
14061;DHT22;7105;43.616;1.434;2023-05-14T13:45:02;20.90;99.90
14061;DHT22;7105;43.616;1.434;2023-05-14T13:47:28;20.90;99.90
14061;DHT22;7105;43.616;1.434;2023-05-14T13:49:54;20.70;99.90
14061;DHT22;7105;43.616;1.434;2023-05-14T13:52:20;20.20;99.90
14061;DHT22;7105;43.616;1.434;2023-05-14T13:54:46;20.40;99.90
14061;DHT22;7105;43.616;1.434;2023-05-14T13:57:12;20.60;99.90
14061;DHT22;7105;43.616;1.434;2023-05-14T13:59:38;20.90;99.90
14061;DHT22;7105;43.616;1.434;2023-05-14T14:02:04;20.90;99.90
14061;DHT22;7105;43.616;1.434;2023-05-14T14:04:30;21.00;99.90
14061;DHT22;7105;43.616;1.434;2023-05-14T14:06:56;20.80;99.90
14061;DHT22;7105;43.616;1.434;2023-05-14T14:09:23;20.80;99.90
14061;DHT22;7105;43.616;1.434;2023-05-14T14:11:49;20.80;99.90
14061;DHT22;7105;43.616;1.434;2023-05-14T14:14:15;21.10;99.90
14061;DHT22;7105;43.616;1.434;2023-05-14T14:16:41;20.80;99.90
14061;DHT22;7105;43.616;1.434;2023-05-14T14:19:07;20.70;99.90
14061;DHT22;7105;43.616;1.434;2023-05-14T14:21:35;20.20;99.90
14061;DHT22;7105;43.616;1.434;2023-05-14T14:24:04;19.90;99.90
14061;DHT22;7105;43.616;1.434;2023-05-14T14:26:30;19.70;99.90
14061;DHT22;7105;43.616;1.434;2023-05-14T14:28:56;19.90;99.90
14061;DHT22;7105;43.616;1.434;2023-05-14T14:31:21;20.10;99.90
14061;DHT22;7105;43.616;1.434;2023-05-14T14:33:47;20.30;99.90
14061;DHT22;7105;43.616;1.434;2023-05-14T14:36:13;20.30;99.90
14061;DHT22;7105;43.616;1.434;2023-05-14T14:38:38;20.30;99.90
14061;DHT22;7105;43.616;1.434;2023-05-14T14:41:05;20.20;99.90
14061;DHT22;7105;43.616;1.434;2023-05-14T14:43:35;20.40;99.90
14061;DHT22;7105;43.616;1.434;2023-05-14T14:46:04;20.70;99.90
14061;DHT22;7105;43.616;1.434;2023-05-14T14:48:32;20.80;99.90
14061;DHT22;7105;43.616;1.434;2023-05-14T14:51:02;20.90;99.90
14061;DHT22;7105;43.616;1.434;2023-05-14T14:53:29;20.80;99.90
14061;DHT22;7105;43.616;1.434;2023-05-14T14:55:55;20.50;99.90
14061;DHT22;7105;43.616;1.434;2023-05-14T14:58:22;20.40;99.90
14061;DHT22;7105;43.616;1.434;2023-05-14T15:00:52;20.40;99.90
14061;DHT22;7105;43.616;1.434;2023-05-14T15:03:18;20.50;99.90
14061;DHT22;7105;43.616;1.434;2023-05-14T15:05:44;20.30;99.90
14061;DHT22;7105;43.616;1.434;2023-05-14T15:08:10;20.40;99.90
14061;DHT22;7105;43.616;1.434;2023-05-14T15:10:36;20.50;99.90
14061;DHT22;7105;43.616;1.434;2023-05-14T15:13:03;20.40;99.90
14061;DHT22;7105;43.616;1.434;2023-05-14T15:15:41;20.60;99.90
14061;DHT22;7105;43.616;1.434;2023-05-14T15:18:07;20.60;99.90
14061;DHT22;7105;43.616;1.434;2023-05-14T15:20:32;20.60;99.90
14061;DHT22;7105;43.616;1.434;2023-05-14T15:22:58;20.50;99.90
14061;DHT22;7105;43.616;1.434;2023-05-14T15:25:25;20.60;99.90
14061;DHT22;7105;43.616;1.434;2023-05-14T15:27:51;20.80;99.90
14061;DHT22;7105;43.616;1.434;2023-05-14T15:30:17;20.80;99.90
14061;DHT22;7105;43.616;1.434;2023-05-14T15:32:43;21.00;99.90
14061;DHT22;7105;43.616;1.434;2023-05-14T15:35:10;20.70;99.90
14061;DHT22;7105;43.616;1.434;2023-05-14T15:37:37;21.00;99.90
14061;DHT22;7105;43.616;1.434;2023-05-14T15:40:04;21.20;99.90
14061;DHT22;7105;43.616;1.434;2023-05-14T15:42:37;20.90;99.90
14061;DHT22;7105;43.616;1.434;2023-05-14T15:45:04;20.80;99.90
14061;DHT22;7105;43.616;1.434;2023-05-14T15:47:30;20.90;99.90